TOURFACTS.DK  
Stats and Facts from Tour de France.

Tour de France 2018 starts in 167 days
  Riders   Stages   Teams   Summits   Yearly  


 
Search by year

 2017 - St.21:
 14824 starters.
  5132 different riders.
  635 teams.
  2232 stages.
  454 restdays.
  439589.60 km.
  5653 abandonnees.


Top 3
GC
Christopher Froome86:20:55
Rigoberto Uran86:21:49
Romain Bardet86:23:15
Climb
Warren Barguil169 pt.
Primoz Roglic80 pt.
Thomas De Gendt64 pt.
Sprint
Michael Matthews359 pt.
André Greipel234 pt.
Edvald Boasson Hagen220 pt.
Youth
Simon Yates86:27:09
Louis Meintjes86:29:15
Emanuel Buchmann86:54:16
Facts from Tour de France 1964
  |   Stages.  |   Stage winners.  |   Days in yellow  |   Average speed.  |   Route.  |   Teams.  |   All riders.  |   Rookies.  |   Withdrawls.  |  

  |   GC.  |   Polka  |   Green  |   White  |   Summits. (In tour)  |   Summits. (Points)  |   Miscellaneous.  |  

Stage 10a on 01 - 07 - 1964
         Owning:    Joseph Groussard    
Pick a stage:  1 2 3a 3b 4 5 6 7 8 9 10a 10b 11 12 13 14 15 16 17 18 19 20 21 22a 22b
  MonacoHyères | Dist: 187.50 km.

Average speed for all riders in stage:  33,838 km./hr.
    Place:Name:Team:Time:Km/h:
NEDJan JanssenFRAPelforth-Sauvage-Lejeune-Wolbe..05:30:58  +  00:00:00=33,991 
GERRudi AltigFRASaint Raphael-Gitane-Campagnol..05:30:58  +  00:00:00=33,991 
ENGMichael WrightBELWiel´s-Groene Leeuw05:30:58  +  00:00:00=33,991 
4 BELGilbert Desmet 1BELWiel´s-Groene Leeuw05:30:58  +  00:00:00=33,991 
5 NEDHenk NijdamNLDTelevisier05:30:58  +  00:00:00=33,991 
6 FRAJean-Pierre GenetFRAMercier-BP-Hutchinson05:30:58  +  00:00:00=33,991 
7 BELGuillaume Van TongerlooBELFlandria-Romeo05:31:02  +  00:00:04=33,984 
8 BELEdward SelsBELSolo-Superia05:32:00  +  00:01:02=33,886 
9 ITABruno FantinatoITASalvarani05:32:00  +  00:01:02=33,886 
10 FRAAndré DarrigadeFRAMargnat-Paloma-Dunlop05:32:00  +  00:01:02=33,886 
11 BELBenoni BeheytBELWiel´s-Groene Leeuw05:32:00  +  00:01:02=33,886 
12 FRAJean GaincheFRAMercier-BP-Hutchinson05:32:00  +  00:01:02=33,886 
13 NEDJo De RooFRASaint Raphael-Gitane-Campagnol..05:32:00  +  00:01:02=33,886 
14 BELArthur DecabooterBELSolo-Superia05:32:00  +  00:01:02=33,886 
15 NEDCees HaastNLDTelevisier05:32:00  +  00:01:02=33,886 
16 BELFrans AerenhoutsFRAMercier-BP-Hutchinson05:32:00  +  00:01:02=33,886 
17 ENGVic DensonBELSolo-Superia05:32:00  +  00:01:02=33,886 
18 FRAGeorges GroussardFRAPelforth-Sauvage-Lejeune-Wolbe..05:32:00  +  00:01:02=33,886 
19 FRAHenri AngladeFRAPelforth-Sauvage-Lejeune-Wolbe..05:32:00  +  00:01:02=33,886 
20 ENGBarry HobanFRAMercier-BP-Hutchinson05:32:00  +  00:01:02=33,886 
21 FRARaymond PoulidorFRAMercier-BP-Hutchinson05:32:00  +  00:01:02=33,886 
22 NEDPiet van EstNLDTelevisier05:32:00  +  00:01:02=33,886 
23 BELJean-Baptiste ClaesBELWiel´s-Groene Leeuw05:32:00  +  00:01:02=33,886 
24 ALGHubert FerrerFRAPelforth-Sauvage-Lejeune-Wolbe..05:32:00  +  00:01:02=33,886 
25 BELVictor Van SchilFRAMercier-BP-Hutchinson05:32:00  +  00:01:02=33,886 
26 FRAJean-Claude LefebvreFRAPelforth-Sauvage-Lejeune-Wolbe..05:32:00  +  00:01:02=33,886 
27 ENGTom SimpsonFRAPeugeot-BP-Englebert05:32:00  +  00:01:02=33,886 
28 ESPFernando ManzanequeESPFerrys05:32:00  +  00:01:02=33,886 
29 ITAVittorio AdorniITASalvarani05:32:00  +  00:01:02=33,886 
30 ITABattista BabiniITASalvarani05:32:00  +  00:01:02=33,886 
31 BELEddy PauwelsFRAMargnat-Paloma-Dunlop05:32:00  +  00:01:02=33,886 
32 NEDAlbertus GeldermansFRASaint Raphael-Gitane-Campagnol..05:32:00  +  00:01:02=33,886 
33 BELBernard Van De KerckhoveBELSolo-Superia05:32:00  +  00:01:02=33,886 
34 FRAJoseph GroussardFRAPelforth-Sauvage-Lejeune-Wolbe..05:32:00  +  00:01:02=33,886 
35 FRACamille Le MennFRAPeugeot-BP-Englebert05:32:00  +  00:01:02=33,886 
36 GERKarl-Heinz KundeBELWiel´s-Groene Leeuw05:32:00  +  00:01:02=33,886 
37 FRAAndré FoucherFRAPelforth-Sauvage-Lejeune-Wolbe..05:32:00  +  00:01:02=33,886 
38 GERHans JunkermannBELWiel´s-Groene Leeuw05:32:00  +  00:01:02=33,886 
39 FRAJean GraczykFRAMargnat-Paloma-Dunlop05:32:00  +  00:01:02=33,886 
40 ESPFederico BahamontesFRAMargnat-Paloma-Dunlop05:32:00  +  00:01:02=33,886 
41 BELEdgard SorgeloosBELSolo-Superia05:32:00  +  00:01:02=33,886 
42 FRAJean StablinskiFRASaint Raphael-Gitane-Campagnol..05:32:00  +  00:01:02=33,886 
43 FRAJacques AnquetilFRASaint Raphael-Gitane-Campagnol..05:32:00  +  00:01:02=33,886 
44 ITAArnaldo PambiancoITASalvarani05:32:00  +  00:01:02=33,886 
45 FRAJean-Claude LebaubeFRASaint Raphael-Gitane-Campagnol..05:32:00  +  00:01:02=33,886 
46 FRALouis RostollanFRASaint Raphael-Gitane-Campagnol..05:32:19  +  00:01:21=33,853 
47 BELMichel Van AerdeBELSolo-Superia05:32:19  +  00:01:21=33,853 
48 FRAJoseph NovalesFRAMargnat-Paloma-Dunlop05:32:19  +  00:01:21=33,853 
49 ESPMiguel PachecoESPFerrys05:32:19  +  00:01:21=33,853 
50 FRAPaul VermeulenFRAMercier-BP-Hutchinson05:32:19  +  00:01:21=33,853 
51 ESPEsteban MartinFRAMargnat-Paloma-Dunlop05:32:23  +  00:01:25=33,846 
52 BELGilbert Desmet 2BELWiel´s-Groene Leeuw05:32:23  +  00:01:25=33,846 
53 FRAEdouard DelbergheFRAPelforth-Sauvage-Lejeune-Wolbe..05:32:23  +  00:01:25=33,846 
54 ESPLuis OtañoESPFerrys05:32:23  +  00:01:25=33,846 
55 ESPFrancisco GabicESPKas-Kaskol05:32:32  +  00:01:34=33,831 
56 FRAAnatole NovakFRASaint Raphael-Gitane-Campagnol..05:32:34  +  00:01:36=33,828 
57 ESPJuan UribezubiaESPKas-Kaskol05:32:34  +  00:01:36=33,828 
58 ITAAntonio FranchiITASalvarani05:32:34  +  00:01:36=33,828 
59 ESPRogelio HernandezESPFerrys05:32:34  +  00:01:36=33,828 
60 FRAFrancois HamonFRAPeugeot-BP-Englebert05:32:34  +  00:01:36=33,828 
61 FRARobert CazalaFRAMercier-BP-Hutchinson05:32:34  +  00:01:36=33,828 
62 FRARobert PoulotFRAMercier-BP-Hutchinson05:32:34  +  00:01:36=33,828 
63 BELWilly DerbovenBELSolo-Superia05:32:34  +  00:01:36=33,828 
64 FRAHenry DuezFRAPeugeot-BP-Englebert05:32:34  +  00:01:36=33,828 
65 BELJozef TimmermanBELWiel´s-Groene Leeuw05:32:34  +  00:01:36=33,828 
66 BELCamiel VynckeBELFlandria-Romeo05:32:34  +  00:01:36=33,828 
67 NEDPiet DamenNLDTelevisier05:32:34  +  00:01:36=33,828 
68 ESPJosé SeguFRAMargnat-Paloma-Dunlop05:32:34  +  00:01:36=33,828 
69 FRAGuy EpaudFRAPelforth-Sauvage-Lejeune-Wolbe..05:32:34  +  00:01:36=33,828 
70 ESPSebastián ElorzaESPKas-Kaskol05:32:34  +  00:01:36=33,828 
71 IRLSeamus ElliottFRASaint Raphael-Gitane-Campagnol..05:32:34  +  00:01:36=33,828 
72 FRAPierre EveraertFRASaint Raphael-Gitane-Campagnol..05:32:34  +  00:01:36=33,828 
73 FRAAndré ZimmermannFRASaint Raphael-Gitane-Campagnol..05:32:34  +  00:01:36=33,828 
74 NEDJo de HaanNLDTelevisier05:32:34  +  00:01:36=33,828 
75 NEDHuub ZilverbergBELFlandria-Romeo05:32:34  +  00:01:36=33,828 
76 FRAJean MilesiFRAMargnat-Paloma-Dunlop05:32:34  +  00:01:36=33,828 
77 BELWilly MontyFRAPelforth-Sauvage-Lejeune-Wolbe..05:32:34  +  00:01:36=33,828 
78 BELFerdinand BrackeFRAPeugeot-BP-Englebert05:32:34  +  00:01:36=33,828 
79 FRAClaude MattioFRAMargnat-Paloma-Dunlop05:32:34  +  00:01:36=33,828 
80 BELArmand DesmetBELSolo-Superia05:32:34  +  00:01:36=33,828 
81 BELJos HoevenaersBELFlandria-Romeo05:32:34  +  00:01:36=33,828 
82 ESPAntonio BarrutiaESPKas-Kaskol05:33:18  +  00:02:20=33,753 
83 ESPMiguel MartinESPKas-Kaskol05:33:22  +  00:02:24=33,747 
84 FRARaymond MastrottoFRAPeugeot-BP-Englebert05:33:22  +  00:02:24=33,747 
85 ESPJosé BernardezESPFerrys05:33:22  +  00:02:24=33,747 
86 ESPJosé Pérez FrancésESPFerrys05:33:22  +  00:02:24=33,747 
87 BELRik WoutersNLDTelevisier05:33:22  +  00:02:24=33,747 
88 ESPAntonio BertranESPFerrys05:33:22  +  00:02:24=33,747 
89 ESPJoaquin GaleraESPKas-Kaskol05:33:22  +  00:02:24=33,747 
90 ESPSalvador HonrubiaESPFerrys05:33:22  +  00:02:24=33,747 
91 FRAJacques GestraudFRAMargnat-Paloma-Dunlop05:33:22  +  00:02:24=33,747 
92 ESPJulio JiménezESPKas-Kaskol05:33:22  +  00:02:24=33,747 
93 ITAVito TacconeITASalvarani05:33:22  +  00:02:24=33,747 
94 ITAMario MinieriITASalvarani05:33:22  +  00:02:24=33,747 
95 ITAItalo MazzacuratiITASalvarani05:33:22  +  00:02:24=33,747 
96 BELFrans BrandsBELFlandria-Romeo05:46:46  +  00:15:48=32,443 

Withdrawls: 2
 
Rider
Team
Reason
31  FRAGuy SeyveFRAPeugeot-BP-EnglebertDid not finish
78  BELWilly BocklantBELFlandria-RomeoDid not finish

Todays birthdays.

1886  Giuseppe Santhia
1907  Allegro Grandi
1936  Anton van der Steen
1952  Glauco Santoni
1957  Antonio Ferretti
1963  Silvio Martinello
1967  Alvaro Mejia
1972  Paul Van Hyfte
1984  Aurélien Passeron




Visits: